sensor_id;sensor_type;location;lat;lon;timestamp;pressure;altitude;pressure_sealevel;temperature
68939;BMP180;59064;45.294;11.816;2024-03-06T00:00:11;101003.60;;;10.20
68939;BMP180;59064;45.294;11.816;2024-03-06T00:02:37;101004.40;;;10.30
68939;BMP180;59064;45.294;11.816;2024-03-06T00:05:03;101005.60;;;10.30
68939;BMP180;59064;45.294;11.816;2024-03-06T00:07:29;101002.40;;;10.40
68939;BMP180;59064;45.294;11.816;2024-03-06T00:09:55;101003.40;;;10.36
68939;BMP180;59064;45.294;11.816;2024-03-06T00:12:23;101006.40;;;10.34
68939;BMP180;59064;45.294;11.816;2024-03-06T00:14:51;101002.00;;;10.30
68939;BMP180;59064;45.294;11.816;2024-03-06T00:17:17;101004.20;;;10.30
68939;BMP180;59064;45.294;11.816;2024-03-06T00:19:42;101005.60;;;10.30
68939;BMP180;59064;45.294;11.816;2024-03-06T00:22:09;101008.60;;;10.20
68939;BMP180;59064;45.294;11.816;2024-03-06T00:24:34;101008.60;;;10.20
68939;BMP180;59064;45.294;11.816;2024-03-06T00:27:00;101010.20;;;10.20
68939;BMP180;59064;45.294;11.816;2024-03-06T00:29:26;101009.40;;;10.20
68939;BMP180;59064;45.294;11.816;2024-03-06T00:31:54;101006.60;;;10.20
68939;BMP180;59064;45.294;11.816;2024-03-06T00:34:19;101008.40;;;10.12
68939;BMP180;59064;45.294;11.816;2024-03-06T00:36:45;101009.80;;;10.10
68939;BMP180;59064;45.294;11.816;2024-03-06T00:39:11;101014.00;;;10.10
68939;BMP180;59064;45.294;11.816;2024-03-06T00:41:39;101011.60;;;10.00
68939;BMP180;59064;45.294;11.816;2024-03-06T00:44:05;101014.20;;;10.00
68939;BMP180;59064;45.294;11.816;2024-03-06T00:46:31;101014.40;;;10.00
68939;BMP180;59064;45.294;11.816;2024-03-06T00:48:56;101009.40;;;9.90
68939;BMP180;59064;45.294;11.816;2024-03-06T00:51:22;101008.80;;;9.90
68939;BMP180;59064;45.294;11.816;2024-03-06T00:53:48;101002.80;;;9.90
68939;BMP180;59064;45.294;11.816;2024-03-06T00:56:13;101006.40;;;9.90
68939;BMP180;59064;45.294;11.816;2024-03-06T00:58:39;101007.20;;;9.90
68939;BMP180;59064;45.294;11.816;2024-03-06T01:01:04;101008.20;;;9.90
68939;BMP180;59064;45.294;11.816;2024-03-06T01:03:30;101007.60;;;9.84
68939;BMP180;59064;45.294;11.816;2024-03-06T01:05:56;101008.60;;;9.80
68939;BMP180;59064;45.294;11.816;2024-03-06T01:08:22;101011.20;;;9.78
68939;BMP180;59064;45.294;11.816;2024-03-06T01:10:50;101009.60;;;9.70
68939;BMP180;59064;45.294;11.816;2024-03-06T01:13:16;101015.40;;;9.60
68939;BMP180;59064;45.294;11.816;2024-03-06T01:15:41;101018.80;;;9.60
68939;BMP180;59064;45.294;11.816;2024-03-06T01:18:07;101013.80;;;9.50
68939;BMP180;59064;45.294;11.816;2024-03-06T01:20:38;101016.20;;;9.46
68939;BMP180;59064;45.294;11.816;2024-03-06T01:23:04;101013.40;;;9.32
68939;BMP180;59064;45.294;11.816;2024-03-06T01:25:29;101009.80;;;9.20
68939;BMP180;59064;45.294;11.816;2024-03-06T01:27:55;101009.00;;;9.10
68939;BMP180;59064;45.294;11.816;2024-03-06T01:30:20;101007.60;;;9.10
68939;BMP180;59064;45.294;11.816;2024-03-06T01:32:48;101003.00;;;9.00
68939;BMP180;59064;45.294;11.816;2024-03-06T01:35:13;101006.20;;;9.00
68939;BMP180;59064;45.294;11.816;2024-03-06T01:37:39;101006.40;;;9.00
68939;BMP180;59064;45.294;11.816;2024-03-06T01:40:07;101011.20;;;9.00
68939;BMP180;59064;45.294;11.816;2024-03-06T01:42:34;101011.80;;;9.00
68939;BMP180;59064;45.294;11.816;2024-03-06T01:45:02;101009.60;;;9.00
68939;BMP180;59064;45.294;11.816;2024-03-06T01:47:27;101011.60;;;9.00
68939;BMP180;59064;45.294;11.816;2024-03-06T01:49:53;101006.00;;;9.00
68939;BMP180;59064;45.294;11.816;2024-03-06T01:52:19;101006.80;;;9.10
68939;BMP180;59064;45.294;11.816;2024-03-06T01:54:47;101005.20;;;9.10
68939;BMP180;59064;45.294;11.816;2024-03-06T01:57:17;101001.00;;;9.10
68939;BMP180;59064;45.294;11.816;2024-03-06T01:59:43;101000.60;;;9.10
68939;BMP180;59064;45.294;11.816;2024-03-06T02:02:09;101000.60;;;9.10
68939;BMP180;59064;45.294;11.816;2024-03-06T02:04:37;100996.40;;;9.10
68939;BMP180;59064;45.294;11.816;2024-03-06T02:07:03;100995.20;;;9.10
68939;BMP180;59064;45.294;11.816;2024-03-06T02:09:28;100991.20;;;9.10
68939;BMP180;59064;45.294;11.816;2024-03-06T02:11:54;100988.40;;;9.10
68939;BMP180;59064;45.294;11.816;2024-03-06T02:14:21;100987.00;;;9.02
68939;BMP180;59064;45.294;11.816;2024-03-06T02:16:47;100985.00;;;9.00
68939;BMP180;59064;45.294;11.816;2024-03-06T02:19:12;100986.40;;;8.96
68939;BMP180;59064;45.294;11.816;2024-03-06T02:21:39;100990.40;;;8.90
68939;BMP180;59064;45.294;11.816;2024-03-06T02:24:04;100992.80;;;8.80
68939;BMP180;59064;45.294;11.816;2024-03-06T02:26:30;100987.20;;;8.70
68939;BMP180;59064;45.294;11.816;2024-03-06T02:28:56;100982.00;;;8.60
68939;BMP180;59064;45.294;11.816;2024-03-06T02:31:22;100985.20;;;8.50
68939;BMP180;59064;45.294;11.816;2024-03-06T02:33:49;100985.20;;;8.46
68939;BMP180;59064;45.294;11.816;2024-03-06T02:36:19;100986.60;;;8.30
68939;BMP180;59064;45.294;11.816;2024-03-06T02:38:45;100980.80;;;8.20
68939;BMP180;59064;45.294;11.816;2024-03-06T02:41:11;100983.60;;;8.10
68939;BMP180;59064;45.294;11.816;2024-03-06T02:43:39;100980.60;;;8.10
68939;BMP180;59064;45.294;11.816;2024-03-06T02:46:04;100980.80;;;8.00
68939;BMP180;59064;45.294;11.816;2024-03-06T02:48:30;100985.20;;;8.00
68939;BMP180;59064;45.294;11.816;2024-03-06T02:50:56;100979.40;;;7.90
68939;BMP180;59064;45.294;11.816;2024-03-06T02:53:22;100979.00;;;7.90
68939;BMP180;59064;45.294;11.816;2024-03-06T02:55:48;100974.60;;;7.90
68939;BMP180;59064;45.294;11.816;2024-03-06T02:58:14;100981.40;;;7.86
68939;BMP180;59064;45.294;11.816;2024-03-06T03:00:40;100982.60;;;7.80
68939;BMP180;59064;45.294;11.816;2024-03-06T03:03:08;100986.40;;;7.80
68939;BMP180;59064;45.294;11.816;2024-03-06T03:05:34;100989.40;;;7.72
68939;BMP180;59064;45.294;11.816;2024-03-06T03:08:00;100991.00;;;7.70
68939;BMP180;59064;45.294;11.816;2024-03-06T03:10:26;100997.00;;;7.80
68939;BMP180;59064;45.294;11.816;2024-03-06T03:12:52;101001.20;;;7.82
68939;BMP180;59064;45.294;11.816;2024-03-06T03:15:18;101000.00;;;7.90
68939;BMP180;59064;45.294;11.816;2024-03-06T03:17:43;100998.00;;;7.90
68939;BMP180;59064;45.294;11.816;2024-03-06T03:20:09;100996.40;;;7.90
68939;BMP180;59064;45.294;11.816;2024-03-06T03:22:37;100995.80;;;7.90
68939;BMP180;59064;45.294;11.816;2024-03-06T03:25:06;100995.80;;;8.00
68939;BMP180;59064;45.294;11.816;2024-03-06T03:27:32;100994.80;;;8.08
68939;BMP180;59064;45.294;11.816;2024-03-06T03:29:58;100993.00;;;8.10
68939;BMP180;59064;45.294;11.816;2024-03-06T03:32:24;100995.60;;;8.10
68939;BMP180;59064;45.294;11.816;2024-03-06T03:34:49;100999.40;;;8.10
68939;BMP180;59064;45.294;11.816;2024-03-06T03:37:15;100997.80;;;8.00
68939;BMP180;59064;45.294;11.816;2024-03-06T03:39:40;101000.80;;;7.94
68939;BMP180;59064;45.294;11.816;2024-03-06T03:42:07;101001.40;;;7.80
68939;BMP180;59064;45.294;11.816;2024-03-06T03:44:32;101002.80;;;7.74
68939;BMP180;59064;45.294;11.816;2024-03-06T03:46:58;101003.40;;;7.70
68939;BMP180;59064;45.294;11.816;2024-03-06T03:49:24;101003.20;;;7.60
68939;BMP180;59064;45.294;11.816;2024-03-06T03:51:49;101009.40;;;7.60
68939;BMP180;59064;45.294;11.816;2024-03-06T03:54:15;101006.20;;;7.60
68939;BMP180;59064;45.294;11.816;2024-03-06T03:56:40;101003.40;;;7.50
68939;BMP180;59064;45.294;11.816;2024-03-06T03:59:08;101005.00;;;7.50
68939;BMP180;59064;45.294;11.816;2024-03-06T04:01:36;101002.80;;;7.48
68939;BMP180;59064;45.294;11.816;2024-03-06T04:04:02;101009.40;;;7.44
68939;BMP180;59064;45.294;11.816;2024-03-06T04:06:28;101015.20;;;7.40
68939;BMP180;59064;45.294;11.816;2024-03-06T04:08:53;101012.60;;;7.30
68939;BMP180;59064;45.294;11.816;2024-03-06T04:11:22;101012.20;;;7.30
68939;BMP180;59064;45.294;11.816;2024-03-06T04:13:48;101009.40;;;7.20
68939;BMP180;59064;45.294;11.816;2024-03-06T04:16:17;101007.60;;;7.20
68939;BMP180;59064;45.294;11.816;2024-03-06T04:18:47;101007.60;;;7.20
68939;BMP180;59064;45.294;11.816;2024-03-06T04:21:12;101007.60;;;7.28
68939;BMP180;59064;45.294;11.816;2024-03-06T04:23:39;101008.20;;;7.26
68939;BMP180;59064;45.294;11.816;2024-03-06T04:26:05;101008.40;;;7.20
68939;BMP180;59064;45.294;11.816;2024-03-06T04:28:31;101017.80;;;7.20
68939;BMP180;59064;45.294;11.816;2024-03-06T04:30:59;101021.20;;;7.12
68939;BMP180;59064;45.294;11.816;2024-03-06T04:33:25;101018.80;;;7.10
68939;BMP180;59064;45.294;11.816;2024-03-06T04:35:50;101016.20;;;7.10
68939;BMP180;59064;45.294;11.816;2024-03-06T04:38:17;101015.20;;;7.10
68939;BMP180;59064;45.294;11.816;2024-03-06T04:40:42;101021.20;;;7.10
68939;BMP180;59064;45.294;11.816;2024-03-06T04:43:08;101026.60;;;7.00
68939;BMP180;59064;45.294;11.816;2024-03-06T04:45:33;101028.40;;;7.00
68939;BMP180;59064;45.294;11.816;2024-03-06T04:47:59;101036.60;;;7.00
68939;BMP180;59064;45.294;11.816;2024-03-06T04:50:25;101036.20;;;6.90
68939;BMP180;59064;45.294;11.816;2024-03-06T04:52:50;101041.20;;;6.94
68939;BMP180;59064;45.294;11.816;2024-03-06T04:55:16;101037.60;;;6.90
68939;BMP180;59064;45.294;11.816;2024-03-06T04:57:46;101040.00;;;6.90
68939;BMP180;59064;45.294;11.816;2024-03-06T05:00:12;101037.60;;;6.90
68939;BMP180;59064;45.294;11.816;2024-03-06T05:02:38;101033.60;;;6.90
68939;BMP180;59064;45.294;11.816;2024-03-06T05:05:04;101038.00;;;6.90
68939;BMP180;59064;45.294;11.816;2024-03-06T05:07:30;101035.20;;;6.90
68939;BMP180;59064;45.294;11.816;2024-03-06T05:09:57;101042.80;;;6.80
68939;BMP180;59064;45.294;11.816;2024-03-06T05:12:23;101044.80;;;6.80
68939;BMP180;59064;45.294;11.816;2024-03-06T05:14:49;101045.40;;;6.70
68939;BMP180;59064;45.294;11.816;2024-03-06T05:17:14;101046.00;;;6.70
68939;BMP180;59064;45.294;11.816;2024-03-06T05:19:40;101046.00;;;6.62
68939;BMP180;59064;45.294;11.816;2024-03-06T05:22:05;101046.00;;;6.60
68939;BMP180;59064;45.294;11.816;2024-03-06T05:24:31;101049.00;;;6.60
68939;BMP180;59064;45.294;11.816;2024-03-06T05:26:59;101058.20;;;6.60
68939;BMP180;59064;45.294;11.816;2024-03-06T05:29:24;101059.20;;;6.50
68939;BMP180;59064;45.294;11.816;2024-03-06T05:31:50;101064.20;;;6.50
68939;BMP180;59064;45.294;11.816;2024-03-06T05:34:15;101063.20;;;6.40
68939;BMP180;59064;45.294;11.816;2024-03-06T05:36:41;101066.20;;;6.34
68939;BMP180;59064;45.294;11.816;2024-03-06T05:39:06;101067.80;;;6.30
68939;BMP180;59064;45.294;11.816;2024-03-06T05:41:32;101066.60;;;6.30
68939;BMP180;59064;45.294;11.816;2024-03-06T05:43:58;101067.00;;;6.30
68939;BMP180;59064;45.294;11.816;2024-03-06T05:46:24;101065.00;;;6.30
68939;BMP180;59064;45.294;11.816;2024-03-06T05:48:49;101074.40;;;6.40
68939;BMP180;59064;45.294;11.816;2024-03-06T05:51:16;101076.80;;;6.40
68939;BMP180;59064;45.294;11.816;2024-03-06T05:53:42;101078.80;;;6.40
68939;BMP180;59064;45.294;11.816;2024-03-06T05:56:08;101078.20;;;6.40
68939;BMP180;59064;45.294;11.816;2024-03-06T05:58:34;101087.20;;;6.40
68939;BMP180;59064;45.294;11.816;2024-03-06T06:01:00;101091.60;;;6.30
68939;BMP180;59064;45.294;11.816;2024-03-06T06:03:29;101103.60;;;6.30
68939;BMP180;59064;45.294;11.816;2024-03-06T06:05:56;101109.00;;;6.40
68939;BMP180;59064;45.294;11.816;2024-03-06T06:08:21;101104.60;;;6.40
68939;BMP180;59064;45.294;11.816;2024-03-06T06:10:47;101101.00;;;6.56
68939;BMP180;59064;45.294;11.816;2024-03-06T06:13:13;101088.40;;;6.70
68939;BMP180;59064;45.294;11.816;2024-03-06T06:15:40;101083.20;;;6.80
68939;BMP180;59064;45.294;11.816;2024-03-06T06:18:05;101084.80;;;6.90
68939;BMP180;59064;45.294;11.816;2024-03-06T06:20:31;101092.80;;;7.00
68939;BMP180;59064;45.294;11.816;2024-03-06T06:22:57;101102.40;;;7.06
68939;BMP180;59064;45.294;11.816;2024-03-06T06:25:23;101113.40;;;7.14
68939;BMP180;59064;45.294;11.816;2024-03-06T06:27:48;101116.20;;;7.30
68939;BMP180;59064;45.294;11.816;2024-03-06T06:30:15;101121.20;;;7.50
68939;BMP180;59064;45.294;11.816;2024-03-06T06:32:41;101120.20;;;7.64
68939;BMP180;59064;45.294;11.816;2024-03-06T06:35:08;101122.40;;;7.80
68939;BMP180;59064;45.294;11.816;2024-03-06T06:37:38;101123.60;;;7.90
68939;BMP180;59064;45.294;11.816;2024-03-06T06:40:10;101123.60;;;8.10
68939;BMP180;59064;45.294;11.816;2024-03-06T06:42:44;101126.40;;;8.20
68939;BMP180;59064;45.294;11.816;2024-03-06T06:45:12;101133.60;;;8.30
68939;BMP180;59064;45.294;11.816;2024-03-06T06:47:38;101136.40;;;8.40
68939;BMP180;59064;45.294;11.816;2024-03-06T06:50:04;101135.00;;;8.50
68939;BMP180;59064;45.294;11.816;2024-03-06T06:52:30;101137.40;;;8.60
68939;BMP180;59064;45.294;11.816;2024-03-06T06:54:59;101138.00;;;8.70
68939;BMP180;59064;45.294;11.816;2024-03-06T06:57:24;101135.80;;;8.80
68939;BMP180;59064;45.294;11.816;2024-03-06T06:59:57;101132.20;;;8.98
68939;BMP180;59064;45.294;11.816;2024-03-06T07:02:23;101133.20;;;9.10
68939;BMP180;59064;45.294;11.816;2024-03-06T07:04:48;101136.60;;;9.30
68939;BMP180;59064;45.294;11.816;2024-03-06T07:07:17;101139.40;;;9.42
68939;BMP180;59064;45.294;11.816;2024-03-06T07:09:43;101139.60;;;9.50
68939;BMP180;59064;45.294;11.816;2024-03-06T07:12:08;101140.20;;;9.50
68939;BMP180;59064;45.294;11.816;2024-03-06T07:14:34;101142.40;;;9.50
68939;BMP180;59064;45.294;11.816;2024-03-06T07:17:00;101136.80;;;9.52
68939;BMP180;59064;45.294;11.816;2024-03-06T07:19:25;101138.40;;;9.60
68939;BMP180;59064;45.294;11.816;2024-03-06T07:21:51;101141.60;;;9.60
68939;BMP180;59064;45.294;11.816;2024-03-06T07:24:17;101141.60;;;9.64
68939;BMP180;59064;45.294;11.816;2024-03-06T07:26:43;101145.00;;;9.70
68939;BMP180;59064;45.294;11.816;2024-03-06T07:29:08;101146.60;;;9.70
68939;BMP180;59064;45.294;11.816;2024-03-06T07:31:43;101146.40;;;9.70
68939;BMP180;59064;45.294;11.816;2024-03-06T07:34:09;101151.40;;;9.72
68939;BMP180;59064;45.294;11.816;2024-03-06T07:36:35;101153.60;;;9.80
68939;BMP180;59064;45.294;11.816;2024-03-06T07:39:02;101159.60;;;9.80
68939;BMP180;59064;45.294;11.816;2024-03-06T07:41:30;101166.60;;;9.90
68939;BMP180;59064;45.294;11.816;2024-03-06T07:43:58;101169.40;;;9.98
68939;BMP180;59064;45.294;11.816;2024-03-06T07:46:24;101171.40;;;10.00
68939;BMP180;59064;45.294;11.816;2024-03-06T07:48:49;101170.20;;;10.06
68939;BMP180;59064;45.294;11.816;2024-03-06T07:51:19;101169.20;;;10.10
68939;BMP180;59064;45.294;11.816;2024-03-06T07:53:47;101173.00;;;10.20
68939;BMP180;59064;45.294;11.816;2024-03-06T07:56:15;101176.60;;;10.30
68939;BMP180;59064;45.294;11.816;2024-03-06T07:58:41;101176.00;;;10.30
68939;BMP180;59064;45.294;11.816;2024-03-06T08:01:07;101183.00;;;10.32
68939;BMP180;59064;45.294;11.816;2024-03-06T08:03:33;101183.60;;;10.40
68939;BMP180;59064;45.294;11.816;2024-03-06T08:06:02;101188.20;;;10.50
68939;BMP180;59064;45.294;11.816;2024-03-06T08:08:29;101183.60;;;10.60
68939;BMP180;59064;45.294;11.816;2024-03-06T08:10:54;101185.20;;;10.70
68939;BMP180;59064;45.294;11.816;2024-03-06T08:13:19;101189.40;;;10.86
68939;BMP180;59064;45.294;11.816;2024-03-06T08:15:45;101192.80;;;10.90
68939;BMP180;59064;45.294;11.816;2024-03-06T08:18:11;101201.80;;;11.00
68939;BMP180;59064;45.294;11.816;2024-03-06T08:20:38;101202.60;;;11.18
68939;BMP180;59064;45.294;11.816;2024-03-06T08:23:07;101209.60;;;11.30
68939;BMP180;59064;45.294;11.816;2024-03-06T08:25:35;101211.80;;;11.40
68939;BMP180;59064;45.294;11.816;2024-03-06T08:28:00;101209.80;;;11.56
68939;BMP180;59064;45.294;11.816;2024-03-06T08:30:26;101216.20;;;11.70
68939;BMP180;59064;45.294;11.816;2024-03-06T08:32:51;101216.60;;;11.84
68939;BMP180;59064;45.294;11.816;2024-03-06T08:35:19;101223.20;;;12.00
68939;BMP180;59064;45.294;11.816;2024-03-06T08:37:46;101222.20;;;12.02
68939;BMP180;59064;45.294;11.816;2024-03-06T08:40:11;101227.40;;;12.10
68939;BMP180;59064;45.294;11.816;2024-03-06T08:42:40;101226.60;;;12.32
68939;BMP180;59064;45.294;11.816;2024-03-06T08:45:07;101224.20;;;12.60
68939;BMP180;59064;45.294;11.816;2024-03-06T08:47:34;101224.60;;;12.72
68939;BMP180;59064;45.294;11.816;2024-03-06T08:49:59;101229.80;;;12.90
68939;BMP180;59064;45.294;11.816;2024-03-06T08:52:24;101235.20;;;13.06
68939;BMP180;59064;45.294;11.816;2024-03-06T08:54:50;101235.60;;;13.30
68939;BMP180;59064;45.294;11.816;2024-03-06T08:57:16;101245.60;;;13.30
68939;BMP180;59064;45.294;11.816;2024-03-06T08:59:49;101249.40;;;13.48
68939;BMP180;59064;45.294;11.816;2024-03-06T09:02:18;101252.60;;;13.62
68939;BMP180;59064;45.294;11.816;2024-03-06T09:04:45;101252.00;;;13.90
68939;BMP180;59064;45.294;11.816;2024-03-06T09:07:12;101252.60;;;14.20
68939;BMP180;59064;45.294;11.816;2024-03-06T09:09:40;101255.20;;;14.40
68939;BMP180;59064;45.294;11.816;2024-03-06T09:12:09;101255.80;;;14.50
68939;BMP180;59064;45.294;11.816;2024-03-06T09:14:40;101250.60;;;14.60
68939;BMP180;59064;45.294;11.816;2024-03-06T09:17:10;101245.60;;;14.58
68939;BMP180;59064;45.294;11.816;2024-03-06T09:19:40;101252.00;;;14.40
68939;BMP180;59064;45.294;11.816;2024-03-06T09:22:06;101252.00;;;14.30
68939;BMP180;59064;45.294;11.816;2024-03-06T09:24:32;101258.40;;;14.32
68939;BMP180;59064;45.294;11.816;2024-03-06T09:27:00;101256.60;;;14.40
68939;BMP180;59064;45.294;11.816;2024-03-06T09:29:26;101260.20;;;14.52
68939;BMP180;59064;45.294;11.816;2024-03-06T09:31:52;101257.20;;;14.70
68939;BMP180;59064;45.294;11.816;2024-03-06T09:34:17;101254.80;;;14.72
68939;BMP180;59064;45.294;11.816;2024-03-06T09:36:48;101252.20;;;14.90
68939;BMP180;59064;45.294;11.816;2024-03-06T09:39:17;101255.00;;;14.90
68939;BMP180;59064;45.294;11.816;2024-03-06T09:41:49;101258.00;;;15.00
68939;BMP180;59064;45.294;11.816;2024-03-06T09:44:16;101252.60;;;14.96
68939;BMP180;59064;45.294;11.816;2024-03-06T09:46:46;101252.60;;;14.90
68939;BMP180;59064;45.294;11.816;2024-03-06T09:49:17;101259.40;;;15.00
68939;BMP180;59064;45.294;11.816;2024-03-06T09:51:46;101259.80;;;15.08
68939;BMP180;59064;45.294;11.816;2024-03-06T09:54:13;101261.00;;;15.30
68939;BMP180;59064;45.294;11.816;2024-03-06T09:56:48;101259.60;;;15.36
68939;BMP180;59064;45.294;11.816;2024-03-06T09:59:14;101253.20;;;15.30
68939;BMP180;59064;45.294;11.816;2024-03-06T10:01:56;101252.00;;;15.20
68939;BMP180;59064;45.294;11.816;2024-03-06T10:04:28;101253.60;;;15.20
68939;BMP180;59064;45.294;11.816;2024-03-06T10:06:58;101257.60;;;15.20
68939;BMP180;59064;45.294;11.816;2024-03-06T10:09:27;101255.20;;;15.40
68939;BMP180;59064;45.294;11.816;2024-03-06T10:11:53;101252.80;;;15.40
68939;BMP180;59064;45.294;11.816;2024-03-06T10:14:19;101253.80;;;15.42
68939;BMP180;59064;45.294;11.816;2024-03-06T10:16:55;101254.20;;;15.42
68939;BMP180;59064;45.294;11.816;2024-03-06T10:19:25;101257.60;;;15.60
68939;BMP180;59064;45.294;11.816;2024-03-06T10:21:53;101259.00;;;15.54
68939;BMP180;59064;45.294;11.816;2024-03-06T10:24:28;101256.40;;;15.22
68939;BMP180;59064;45.294;11.816;2024-03-06T10:26:55;101260.40;;;15.08
68939;BMP180;59064;45.294;11.816;2024-03-06T10:29:26;101262.00;;;14.90
68939;BMP180;59064;45.294;11.816;2024-03-06T10:31:58;101265.40;;;14.80
68939;BMP180;59064;45.294;11.816;2024-03-06T10:34:28;101257.00;;;14.70
68939;BMP180;59064;45.294;11.816;2024-03-06T10:36:59;101262.00;;;14.76
68939;BMP180;59064;45.294;11.816;2024-03-06T10:39:25;101267.80;;;14.90
68939;BMP180;59064;45.294;11.816;2024-03-06T10:41:59;101267.60;;;15.04
68939;BMP180;59064;45.294;11.816;2024-03-06T10:44:27;101262.60;;;15.20
68939;BMP180;59064;45.294;11.816;2024-03-06T10:46:58;101262.00;;;15.30
68939;BMP180;59064;45.294;11.816;2024-03-06T10:49:25;101259.20;;;15.50
68939;BMP180;59064;45.294;11.816;2024-03-06T10:52:00;101262.80;;;15.54
68939;BMP180;59064;45.294;11.816;2024-03-06T10:54:30;101268.20;;;15.68
68939;BMP180;59064;45.294;11.816;2024-03-06T10:56:56;101272.40;;;15.80
68939;BMP180;59064;45.294;11.816;2024-03-06T10:59:25;101275.00;;;15.80
68939;BMP180;59064;45.294;11.816;2024-03-06T11:01:54;101281.00;;;15.90
68939;BMP180;59064;45.294;11.816;2024-03-06T11:04:24;101282.80;;;16.00
68939;BMP180;59064;45.294;11.816;2024-03-06T11:06:50;101278.20;;;16.00
68939;BMP180;59064;45.294;11.816;2024-03-06T11:09:16;101275.60;;;16.00
68939;BMP180;59064;45.294;11.816;2024-03-06T11:11:50;101278.00;;;16.00
68939;BMP180;59064;45.294;11.816;2024-03-06T11:14:17;101279.20;;;16.06
68939;BMP180;59064;45.294;11.816;2024-03-06T11:17:05;101271.20;;;16.20
68939;BMP180;59064;45.294;11.816;2024-03-06T11:28:15;101268.20;;;17.36
68939;BMP180;59064;45.294;11.816;2024-03-06T11:30:45;101265.00;;;17.80
68939;BMP180;59064;45.294;11.816;2024-03-06T11:33:14;101258.20;;;18.10
68939;BMP180;59064;45.294;11.816;2024-03-06T11:36:21;101261.60;;;18.34
68939;BMP180;59064;45.294;11.816;2024-03-06T11:44:12;101248.80;;;19.34
68939;BMP180;59064;45.294;11.816;2024-03-06T11:46:44;101248.20;;;19.60
68939;BMP180;59064;45.294;11.816;2024-03-06T11:49:17;101252.40;;;19.38
68939;BMP180;59064;45.294;11.816;2024-03-06T11:51:46;101250.00;;;19.12
68939;BMP180;59064;45.294;11.816;2024-03-06T11:54:15;101248.20;;;18.84
68939;BMP180;59064;45.294;11.816;2024-03-06T11:56:43;101241.80;;;18.68
68939;BMP180;59064;45.294;11.816;2024-03-06T11:59:12;101242.20;;;18.78
68939;BMP180;59064;45.294;11.816;2024-03-06T12:01:38;101238.60;;;19.08
68939;BMP180;59064;45.294;11.816;2024-03-06T12:04:04;101234.80;;;18.90
68939;BMP180;59064;45.294;11.816;2024-03-06T12:06:31;101243.80;;;18.62
68939;BMP180;59064;45.294;11.816;2024-03-06T12:08:57;101242.60;;;18.22
68939;BMP180;59064;45.294;11.816;2024-03-06T12:11:23;101246.20;;;18.12
68939;BMP180;59064;45.294;11.816;2024-03-06T12:13:51;101242.40;;;18.10
68939;BMP180;59064;45.294;11.816;2024-03-06T12:16:17;101239.60;;;17.64
68939;BMP180;59064;45.294;11.816;2024-03-06T12:18:43;101244.80;;;17.30
68939;BMP180;59064;45.294;11.816;2024-03-06T12:21:10;101245.40;;;17.06
68939;BMP180;59064;45.294;11.816;2024-03-06T12:23:39;101248.00;;;16.90
68939;BMP180;59064;45.294;11.816;2024-03-06T12:26:06;101249.20;;;16.80
68939;BMP180;59064;45.294;11.816;2024-03-06T12:28:32;101245.00;;;16.80
68939;BMP180;59064;45.294;11.816;2024-03-06T12:31:02;101242.20;;;16.70
68939;BMP180;59064;45.294;11.816;2024-03-06T12:33:28;101243.80;;;16.80
68939;BMP180;59064;45.294;11.816;2024-03-06T12:36:09;101242.80;;;16.82
68939;BMP180;59064;45.294;11.816;2024-03-06T12:38:38;101242.00;;;16.70
68939;BMP180;59064;45.294;11.816;2024-03-06T12:41:04;101236.80;;;16.86
68939;BMP180;59064;45.294;11.816;2024-03-06T12:43:31;101242.00;;;16.88
68939;BMP180;59064;45.294;11.816;2024-03-06T12:45:56;101240.40;;;16.90
68939;BMP180;59064;45.294;11.816;2024-03-06T12:48:23;101243.20;;;16.80
68939;BMP180;59064;45.294;11.816;2024-03-06T12:50:49;101243.00;;;16.70
68939;BMP180;59064;45.294;11.816;2024-03-06T12:53:32;101245.20;;;16.86
68939;BMP180;59064;45.294;11.816;2024-03-06T12:56:01;101245.20;;;16.90
68939;BMP180;59064;45.294;11.816;2024-03-06T12:58:27;101240.40;;;16.94
68939;BMP180;59064;45.294;11.816;2024-03-06T13:00:52;101244.80;;;16.90
68939;BMP180;59064;45.294;11.816;2024-03-06T13:03:19;101242.40;;;16.70
68939;BMP180;59064;45.294;11.816;2024-03-06T13:05:47;101243.20;;;16.60
68939;BMP180;59064;45.294;11.816;2024-03-06T13:08:13;101246.00;;;16.50
68939;BMP180;59064;45.294;11.816;2024-03-06T13:10:42;101245.20;;;16.40
68939;BMP180;59064;45.294;11.816;2024-03-06T13:13:08;101241.00;;;16.10
68939;BMP180;59064;45.294;11.816;2024-03-06T13:15:34;101234.00;;;15.72
68939;BMP180;59064;45.294;11.816;2024-03-06T13:18:04;101241.40;;;15.22
68939;BMP180;59064;45.294;11.816;2024-03-06T13:20:54;101230.80;;;14.90
68939;BMP180;59064;45.294;11.816;2024-03-06T13:23:20;101240.20;;;14.60
68939;BMP180;59064;45.294;11.816;2024-03-06T13:25:47;101236.00;;;14.30
68939;BMP180;59064;45.294;11.816;2024-03-06T13:28:13;101249.40;;;14.20
68939;BMP180;59064;45.294;11.816;2024-03-06T13:30:39;101240.40;;;14.10
68939;BMP180;59064;45.294;11.816;2024-03-06T13:33:05;101248.40;;;14.14
68939;BMP180;59064;45.294;11.816;2024-03-06T13:35:31;101245.60;;;14.20
68939;BMP180;59064;45.294;11.816;2024-03-06T13:37:57;101239.80;;;14.20
68939;BMP180;59064;45.294;11.816;2024-03-06T13:40:22;101231.00;;;14.20
68939;BMP180;59064;45.294;11.816;2024-03-06T13:42:48;101234.40;;;14.30
68939;BMP180;59064;45.294;11.816;2024-03-06T13:45:16;101235.80;;;14.30
68939;BMP180;59064;45.294;11.816;2024-03-06T13:47:42;101240.20;;;14.40
68939;BMP180;59064;45.294;11.816;2024-03-06T13:50:09;101244.80;;;14.60
68939;BMP180;59064;45.294;11.816;2024-03-06T13:52:35;101244.60;;;14.68
68939;BMP180;59064;45.294;11.816;2024-03-06T13:55:01;101248.20;;;15.16
68939;BMP180;59064;45.294;11.816;2024-03-06T13:57:33;101233.80;;;15.64
68939;BMP180;59064;45.294;11.816;2024-03-06T14:00:01;101224.60;;;15.90
68939;BMP180;59064;45.294;11.816;2024-03-06T14:02:28;101230.80;;;15.72
68939;BMP180;59064;45.294;11.816;2024-03-06T14:04:54;101228.20;;;15.70